sensor_id;sensor_type;location;lat;lon;timestamp;temperature;humidity
27376;DHT22;14844;51.302;6.354;2023-01-20T00:00:07;0.40;99.90
27376;DHT22;14844;51.302;6.354;2023-01-20T00:02:33;0.50;99.90
27376;DHT22;14844;51.302;6.354;2023-01-20T00:04:59;0.50;99.90
27376;DHT22;14844;51.302;6.354;2023-01-20T00:07:24;0.50;99.90
27376;DHT22;14844;51.302;6.354;2023-01-20T00:09:50;0.60;99.90
27376;DHT22;14844;51.302;6.354;2023-01-20T00:12:15;0.60;99.90
27376;DHT22;14844;51.302;6.354;2023-01-20T00:14:41;0.60;99.90
27376;DHT22;14844;51.302;6.354;2023-01-20T00:17:07;0.70;99.90
27376;DHT22;14844;51.302;6.354;2023-01-20T00:19:32;0.70;99.90
27376;DHT22;14844;51.302;6.354;2023-01-20T00:21:58;0.70;99.90
27376;DHT22;14844;51.302;6.354;2023-01-20T00:24:24;0.80;99.90
27376;DHT22;14844;51.302;6.354;2023-01-20T00:26:50;0.70;99.90
27376;DHT22;14844;51.302;6.354;2023-01-20T00:29:15;0.80;99.90
27376;DHT22;14844;51.302;6.354;2023-01-20T00:31:41;0.80;99.90
27376;DHT22;14844;51.302;6.354;2023-01-20T00:34:08;0.80;99.90
27376;DHT22;14844;51.302;6.354;2023-01-20T00:36:37;0.80;99.90
27376;DHT22;14844;51.302;6.354;2023-01-20T00:39:05;0.90;99.90
27376;DHT22;14844;51.302;6.354;2023-01-20T00:41:31;0.90;99.90
27376;DHT22;14844;51.302;6.354;2023-01-20T00:43:57;0.90;99.90
27376;DHT22;14844;51.302;6.354;2023-01-20T00:46:22;0.90;99.90
27376;DHT22;14844;51.302;6.354;2023-01-20T00:48:48;0.90;99.90
27376;DHT22;14844;51.302;6.354;2023-01-20T00:51:14;0.90;99.90
27376;DHT22;14844;51.302;6.354;2023-01-20T00:53:44;1.00;99.90
27376;DHT22;14844;51.302;6.354;2023-01-20T00:56:10;1.00;99.90
27376;DHT22;14844;51.302;6.354;2023-01-20T00:58:38;1.00;99.90
27376;DHT22;14844;51.302;6.354;2023-01-20T01:01:09;1.00;99.90
27376;DHT22;14844;51.302;6.354;2023-01-20T01:03:35;1.00;99.90
27376;DHT22;14844;51.302;6.354;2023-01-20T01:06:06;1.00;99.90
27376;DHT22;14844;51.302;6.354;2023-01-20T01:08:37;1.00;99.90
27376;DHT22;14844;51.302;6.354;2023-01-20T01:11:04;1.00;99.90
27376;DHT22;14844;51.302;6.354;2023-01-20T01:13:34;1.00;99.90
27376;DHT22;14844;51.302;6.354;2023-01-20T01:16:02;1.00;99.90
27376;DHT22;14844;51.302;6.354;2023-01-20T01:18:38;1.00;99.90
27376;DHT22;14844;51.302;6.354;2023-01-20T01:21:14;1.00;99.90
27376;DHT22;14844;51.302;6.354;2023-01-20T01:23:53;0.90;99.90
27376;DHT22;14844;51.302;6.354;2023-01-20T01:26:19;0.90;99.90
27376;DHT22;14844;51.302;6.354;2023-01-20T01:28:48;1.00;99.90
27376;DHT22;14844;51.302;6.354;2023-01-20T01:31:15;1.00;99.90
27376;DHT22;14844;51.302;6.354;2023-01-20T01:33:42;0.90;99.90
27376;DHT22;14844;51.302;6.354;2023-01-20T01:36:11;1.00;99.90
27376;DHT22;14844;51.302;6.354;2023-01-20T01:38:43;1.00;99.90
27376;DHT22;14844;51.302;6.354;2023-01-20T01:41:20;1.00;99.90
27376;DHT22;14844;51.302;6.354;2023-01-20T01:44:06;1.00;99.90
27376;DHT22;14844;51.302;6.354;2023-01-20T01:46:32;1.00;99.90
27376;DHT22;14844;51.302;6.354;2023-01-20T01:49:17;1.00;99.90
27376;DHT22;14844;51.302;6.354;2023-01-20T01:51:53;1.00;99.90
27376;DHT22;14844;51.302;6.354;2023-01-20T01:54:23;1.00;99.90
27376;DHT22;14844;51.302;6.354;2023-01-20T01:56:52;1.00;99.90
27376;DHT22;14844;51.302;6.354;2023-01-20T01:59:23;1.10;99.90
27376;DHT22;14844;51.302;6.354;2023-01-20T02:01:52;1.10;99.90
27376;DHT22;14844;51.302;6.354;2023-01-20T02:04:23;1.00;99.90
27376;DHT22;14844;51.302;6.354;2023-01-20T02:07:03;1.00;99.90
27376;DHT22;14844;51.302;6.354;2023-01-20T02:09:32;1.00;99.90
27376;DHT22;14844;51.302;6.354;2023-01-20T02:12:05;1.00;99.90
27376;DHT22;14844;51.302;6.354;2023-01-20T02:14:40;1.00;99.90
27376;DHT22;14844;51.302;6.354;2023-01-20T02:17:31;1.00;99.90
27376;DHT22;14844;51.302;6.354;2023-01-20T02:26:44;0.90;99.90
27376;DHT22;14844;51.302;6.354;2023-01-20T02:32:26;0.90;99.90
27376;DHT22;14844;51.302;6.354;2023-01-20T02:41:48;0.90;99.90
27376;DHT22;14844;51.302;6.354;2023-01-20T02:44:50;0.90;99.90
27376;DHT22;14844;51.302;6.354;2023-01-20T02:47:29;0.90;99.90
27376;DHT22;14844;51.302;6.354;2023-01-20T02:52:53;1.00;99.90
27376;DHT22;14844;51.302;6.354;2023-01-20T02:55:40;1.00;99.90
27376;DHT22;14844;51.302;6.354;2023-01-20T02:58:32;1.00;99.90
27376;DHT22;14844;51.302;6.354;2023-01-20T03:01:07;1.00;99.90
27376;DHT22;14844;51.302;6.354;2023-01-20T03:03:58;1.00;99.90
27376;DHT22;14844;51.302;6.354;2023-01-20T03:06:41;1.00;99.90
27376;DHT22;14844;51.302;6.354;2023-01-20T03:09:29;1.00;99.90
27376;DHT22;14844;51.302;6.354;2023-01-20T03:12:06;1.00;99.90
27376;DHT22;14844;51.302;6.354;2023-01-20T03:14:37;1.00;99.90
27376;DHT22;14844;51.302;6.354;2023-01-20T03:17:09;0.90;99.90
27376;DHT22;14844;51.302;6.354;2023-01-20T03:19:42;0.90;99.90
27376;DHT22;14844;51.302;6.354;2023-01-20T03:22:17;0.90;99.90
27376;DHT22;14844;51.302;6.354;2023-01-20T03:24:46;0.80;99.90
27376;DHT22;14844;51.302;6.354;2023-01-20T03:27:18;0.80;99.90
27376;DHT22;14844;51.302;6.354;2023-01-20T03:29:48;0.80;99.90
27376;DHT22;14844;51.302;6.354;2023-01-20T03:32:18;0.80;99.90
27376;DHT22;14844;51.302;6.354;2023-01-20T03:34:56;0.70;99.90
27376;DHT22;14844;51.302;6.354;2023-01-20T03:37:25;0.60;99.90
27376;DHT22;14844;51.302;6.354;2023-01-20T03:39:51;0.50;99.90
27376;DHT22;14844;51.302;6.354;2023-01-20T03:42:42;0.60;99.90
27376;DHT22;14844;51.302;6.354;2023-01-20T03:48:22;0.70;99.90
27376;DHT22;14844;51.302;6.354;2023-01-20T03:50:56;0.80;99.90
27376;DHT22;14844;51.302;6.354;2023-01-20T03:53:37;0.80;99.90
27376;DHT22;14844;51.302;6.354;2023-01-20T03:59:02;0.90;99.90
27376;DHT22;14844;51.302;6.354;2023-01-20T04:01:39;1.00;99.90
27376;DHT22;14844;51.302;6.354;2023-01-20T04:04:14;1.00;99.90
27376;DHT22;14844;51.302;6.354;2023-01-20T04:06:48;1.00;99.90
27376;DHT22;14844;51.302;6.354;2023-01-20T04:09:21;1.00;99.90
27376;DHT22;14844;51.302;6.354;2023-01-20T04:11:56;1.00;99.90
27376;DHT22;14844;51.302;6.354;2023-01-20T04:14:23;1.10;99.90
27376;DHT22;14844;51.302;6.354;2023-01-20T04:16:54;1.10;99.90
27376;DHT22;14844;51.302;6.354;2023-01-20T04:19:21;1.10;99.90
27376;DHT22;14844;51.302;6.354;2023-01-20T04:22:16;1.10;99.90
27376;DHT22;14844;51.302;6.354;2023-01-20T04:24:58;1.10;99.90
27376;DHT22;14844;51.302;6.354;2023-01-20T04:27:25;1.10;99.90
27376;DHT22;14844;51.302;6.354;2023-01-20T04:29:54;1.10;99.90
27376;DHT22;14844;51.302;6.354;2023-01-20T04:32:22;1.10;99.90
27376;DHT22;14844;51.302;6.354;2023-01-20T04:34:51;1.10;99.90
27376;DHT22;14844;51.302;6.354;2023-01-20T04:37:20;1.10;99.90
27376;DHT22;14844;51.302;6.354;2023-01-20T04:40:07;1.10;99.90
27376;DHT22;14844;51.302;6.354;2023-01-20T04:42:39;1.10;99.90
27376;DHT22;14844;51.302;6.354;2023-01-20T04:45:12;1.00;99.90
27376;DHT22;14844;51.302;6.354;2023-01-20T04:47:38;1.00;99.90
27376;DHT22;14844;51.302;6.354;2023-01-20T04:50:04;1.00;99.90
27376;DHT22;14844;51.302;6.354;2023-01-20T04:52:33;1.00;99.90
27376;DHT22;14844;51.302;6.354;2023-01-20T04:54:58;1.00;99.90
27376;DHT22;14844;51.302;6.354;2023-01-20T04:57:31;1.00;99.90
27376;DHT22;14844;51.302;6.354;2023-01-20T05:02:57;1.00;99.90
27376;DHT22;14844;51.302;6.354;2023-01-20T05:05:29;1.00;99.90
27376;DHT22;14844;51.302;6.354;2023-01-20T05:07:56;1.00;99.90
27376;DHT22;14844;51.302;6.354;2023-01-20T05:10:24;1.00;99.90
27376;DHT22;14844;51.302;6.354;2023-01-20T05:12:50;1.00;99.90
27376;DHT22;14844;51.302;6.354;2023-01-20T05:15:16;1.00;99.90
27376;DHT22;14844;51.302;6.354;2023-01-20T05:17:42;1.00;99.90
27376;DHT22;14844;51.302;6.354;2023-01-20T05:20:08;1.10;99.90
27376;DHT22;14844;51.302;6.354;2023-01-20T05:22:34;1.00;99.90
27376;DHT22;14844;51.302;6.354;2023-01-20T05:24:59;1.10;99.90
27376;DHT22;14844;51.302;6.354;2023-01-20T05:27:25;1.10;99.90
27376;DHT22;14844;51.302;6.354;2023-01-20T05:29:51;1.00;99.90
27376;DHT22;14844;51.302;6.354;2023-01-20T05:32:16;1.00;99.90
27376;DHT22;14844;51.302;6.354;2023-01-20T05:34:43;1.10;99.90
27376;DHT22;14844;51.302;6.354;2023-01-20T05:37:09;1.10;99.90
27376;DHT22;14844;51.302;6.354;2023-01-20T05:39:34;1.10;99.90
27376;DHT22;14844;51.302;6.354;2023-01-20T05:42:00;1.00;99.90
27376;DHT22;14844;51.302;6.354;2023-01-20T05:44:26;1.00;99.90
27376;DHT22;14844;51.302;6.354;2023-01-20T05:46:52;1.00;99.90
27376;DHT22;14844;51.302;6.354;2023-01-20T05:49:18;0.90;99.90
27376;DHT22;14844;51.302;6.354;2023-01-20T05:51:43;0.90;99.90
27376;DHT22;14844;51.302;6.354;2023-01-20T05:54:09;0.90;99.90
27376;DHT22;14844;51.302;6.354;2023-01-20T05:56:34;0.90;99.90
27376;DHT22;14844;51.302;6.354;2023-01-20T05:59:00;1.00;99.90
27376;DHT22;14844;51.302;6.354;2023-01-20T06:01:26;1.00;99.90
27376;DHT22;14844;51.302;6.354;2023-01-20T06:03:51;0.90;99.90
27376;DHT22;14844;51.302;6.354;2023-01-20T06:06:18;0.90;99.90
27376;DHT22;14844;51.302;6.354;2023-01-20T06:08:45;0.90;99.90
27376;DHT22;14844;51.302;6.354;2023-01-20T06:11:12;0.90;99.90
27376;DHT22;14844;51.302;6.354;2023-01-20T06:13:48;0.90;99.90
27376;DHT22;14844;51.302;6.354;2023-01-20T06:16:16;0.90;99.90
27376;DHT22;14844;51.302;6.354;2023-01-20T06:18:41;0.90;99.90
27376;DHT22;14844;51.302;6.354;2023-01-20T06:21:09;0.90;99.90
27376;DHT22;14844;51.302;6.354;2023-01-20T06:23:37;0.90;99.90
27376;DHT22;14844;51.302;6.354;2023-01-20T06:26:05;0.90;99.90
27376;DHT22;14844;51.302;6.354;2023-01-20T06:28:40;0.90;99.90
27376;DHT22;14844;51.302;6.354;2023-01-20T06:31:18;0.90;99.90
27376;DHT22;14844;51.302;6.354;2023-01-20T06:34:00;0.80;99.90
27376;DHT22;14844;51.302;6.354;2023-01-20T06:36:33;0.80;99.90
27376;DHT22;14844;51.302;6.354;2023-01-20T06:39:05;0.80;99.90
27376;DHT22;14844;51.302;6.354;2023-01-20T06:41:39;0.80;99.90
27376;DHT22;14844;51.302;6.354;2023-01-20T06:44:11;0.90;99.90
27376;DHT22;14844;51.302;6.354;2023-01-20T06:46:40;0.90;99.90
27376;DHT22;14844;51.302;6.354;2023-01-20T06:49:08;0.90;99.90
27376;DHT22;14844;51.302;6.354;2023-01-20T06:51:39;0.90;99.90
27376;DHT22;14844;51.302;6.354;2023-01-20T06:54:09;0.90;99.90
27376;DHT22;14844;51.302;6.354;2023-01-20T06:57:00;0.90;99.90
27376;DHT22;14844;51.302;6.354;2023-01-20T06:59:50;1.00;99.90
27376;DHT22;14844;51.302;6.354;2023-01-20T07:02:24;0.90;99.90
27376;DHT22;14844;51.302;6.354;2023-01-20T07:05:03;0.90;99.90
27376;DHT22;14844;51.302;6.354;2023-01-20T07:07:43;0.90;99.90
27376;DHT22;14844;51.302;6.354;2023-01-20T07:10:11;0.90;99.90
27376;DHT22;14844;51.302;6.354;2023-01-20T07:12:39;0.90;99.90
27376;DHT22;14844;51.302;6.354;2023-01-20T07:15:13;0.90;99.90
27376;DHT22;14844;51.302;6.354;2023-01-20T07:18:09;1.00;99.90
27376;DHT22;14844;51.302;6.354;2023-01-20T07:20:45;1.00;99.90
27376;DHT22;14844;51.302;6.354;2023-01-20T07:23:16;1.00;99.90
27376;DHT22;14844;51.302;6.354;2023-01-20T07:25:55;1.00;99.90
27376;DHT22;14844;51.302;6.354;2023-01-20T07:28:31;1.00;99.90
27376;DHT22;14844;51.302;6.354;2023-01-20T07:31:16;1.00;99.90
27376;DHT22;14844;51.302;6.354;2023-01-20T07:34:04;1.00;99.90
27376;DHT22;14844;51.302;6.354;2023-01-20T07:36:30;1.10;99.90
27376;DHT22;14844;51.302;6.354;2023-01-20T07:38:56;1.10;99.90
27376;DHT22;14844;51.302;6.354;2023-01-20T07:41:22;1.10;99.90
27376;DHT22;14844;51.302;6.354;2023-01-20T07:43:50;1.00;99.90
27376;DHT22;14844;51.302;6.354;2023-01-20T07:46:18;1.10;99.90
27376;DHT22;14844;51.302;6.354;2023-01-20T07:48:49;1.10;99.90
27376;DHT22;14844;51.302;6.354;2023-01-20T07:51:18;1.20;99.90
27376;DHT22;14844;51.302;6.354;2023-01-20T07:53:51;1.20;99.90
27376;DHT22;14844;51.302;6.354;2023-01-20T07:56:25;1.20;99.90
27376;DHT22;14844;51.302;6.354;2023-01-20T07:58:57;1.20;99.90
27376;DHT22;14844;51.302;6.354;2023-01-20T08:01:30;1.20;99.90
27376;DHT22;14844;51.302;6.354;2023-01-20T08:04:01;1.30;99.90
27376;DHT22;14844;51.302;6.354;2023-01-20T08:06:30;1.30;99.90
27376;DHT22;14844;51.302;6.354;2023-01-20T08:08:59;1.30;99.90
27376;DHT22;14844;51.302;6.354;2023-01-20T08:11:28;1.30;99.90
27376;DHT22;14844;51.302;6.354;2023-01-20T08:14:00;1.30;99.90
27376;DHT22;14844;51.302;6.354;2023-01-20T08:16:39;1.40;99.90
27376;DHT22;14844;51.302;6.354;2023-01-20T08:19:05;1.50;99.90
27376;DHT22;14844;51.302;6.354;2023-01-20T08:21:36;1.50;99.90
27376;DHT22;14844;51.302;6.354;2023-01-20T08:24:02;1.60;99.90
27376;DHT22;14844;51.302;6.354;2023-01-20T08:26:30;1.50;99.90
27376;DHT22;14844;51.302;6.354;2023-01-20T08:29:05;1.50;99.90
27376;DHT22;14844;51.302;6.354;2023-01-20T08:31:31;1.50;99.90
27376;DHT22;14844;51.302;6.354;2023-01-20T08:33:57;1.50;99.90
27376;DHT22;14844;51.302;6.354;2023-01-20T08:36:26;1.40;99.90
27376;DHT22;14844;51.302;6.354;2023-01-20T08:38:54;1.50;99.90
27376;DHT22;14844;51.302;6.354;2023-01-20T08:41:24;1.50;99.90
27376;DHT22;14844;51.302;6.354;2023-01-20T08:43:51;1.60;99.90
27376;DHT22;14844;51.302;6.354;2023-01-20T08:46:18;1.70;99.90
27376;DHT22;14844;51.302;6.354;2023-01-20T08:48:44;1.80;99.90
27376;DHT22;14844;51.302;6.354;2023-01-20T08:51:13;1.90;99.90
27376;DHT22;14844;51.302;6.354;2023-01-20T08:53:42;1.90;99.90
27376;DHT22;14844;51.302;6.354;2023-01-20T08:56:09;2.00;99.90
27376;DHT22;14844;51.302;6.354;2023-01-20T08:58:35;2.00;99.90
27376;DHT22;14844;51.302;6.354;2023-01-20T09:01:15;2.00;99.90
27376;DHT22;14844;51.302;6.354;2023-01-20T09:03:41;2.10;99.90
27376;DHT22;14844;51.302;6.354;2023-01-20T09:06:10;2.20;99.90
27376;DHT22;14844;51.302;6.354;2023-01-20T09:08:36;2.30;99.90
27376;DHT22;14844;51.302;6.354;2023-01-20T09:13:32;2.30;99.90
27376;DHT22;14844;51.302;6.354;2023-01-20T09:15:58;2.40;99.90
27376;DHT22;14844;51.302;6.354;2023-01-20T09:18:23;2.30;99.90
27376;DHT22;14844;51.302;6.354;2023-01-20T09:20:49;2.40;99.90
27376;DHT22;14844;51.302;6.354;2023-01-20T09:23:15;2.60;99.90
27376;DHT22;14844;51.302;6.354;2023-01-20T09:25:44;2.50;99.90
27376;DHT22;14844;51.302;6.354;2023-01-20T09:28:10;2.60;99.90
27376;DHT22;14844;51.302;6.354;2023-01-20T09:30:39;2.80;99.90
27376;DHT22;14844;51.302;6.354;2023-01-20T09:33:08;2.80;99.90
27376;DHT22;14844;51.302;6.354;2023-01-20T09:35:36;2.90;99.90
27376;DHT22;14844;51.302;6.354;2023-01-20T09:38:02;2.90;99.90
27376;DHT22;14844;51.302;6.354;2023-01-20T09:43:57;2.80;99.90
27376;DHT22;14844;51.302;6.354;2023-01-20T09:49:28;2.90;99.90
27376;DHT22;14844;51.302;6.354;2023-01-20T09:55:25;2.80;99.90
27376;DHT22;14844;51.302;6.354;2023-01-20T10:06:40;2.70;99.90
27376;DHT22;14844;51.302;6.354;2023-01-20T10:12:17;2.70;99.90
27376;DHT22;14844;51.302;6.354;2023-01-20T10:15:05;2.60;99.90
27376;DHT22;14844;51.302;6.354;2023-01-20T10:17:37;2.70;99.90
27376;DHT22;14844;51.302;6.354;2023-01-20T10:25:39;2.80;99.90
27376;DHT22;14844;51.302;6.354;2023-01-20T10:28:28;2.80;99.90
27376;DHT22;14844;51.302;6.354;2023-01-20T10:31:02;2.70;99.90
27376;DHT22;14844;51.302;6.354;2023-01-20T10:33:53;2.70;99.90
27376;DHT22;14844;51.302;6.354;2023-01-20T10:36:29;2.70;99.90
27376;DHT22;14844;51.302;6.354;2023-01-20T10:41:54;2.70;99.90
27376;DHT22;14844;51.302;6.354;2023-01-20T10:44:28;2.70;99.90
27376;DHT22;14844;51.302;6.354;2023-01-20T10:50:02;2.90;99.90
27376;DHT22;14844;51.302;6.354;2023-01-20T10:58:52;2.80;99.90
27376;DHT22;14844;51.302;6.354;2023-01-20T11:01:43;2.80;99.90
27376;DHT22;14844;51.302;6.354;2023-01-20T11:04:18;2.80;99.90
27376;DHT22;14844;51.302;6.354;2023-01-20T11:07:01;2.80;99.90
27376;DHT22;14844;51.302;6.354;2023-01-20T11:09:37;2.70;99.90
27376;DHT22;14844;51.302;6.354;2023-01-20T11:12:27;2.70;99.90
27376;DHT22;14844;51.302;6.354;2023-01-20T11:15:17;2.70;99.90
27376;DHT22;14844;51.302;6.354;2023-01-20T11:18:22;2.60;99.90
27376;DHT22;14844;51.302;6.354;2023-01-20T11:21:03;2.60;99.90
27376;DHT22;14844;51.302;6.354;2023-01-20T11:23:52;2.70;99.90
27376;DHT22;14844;51.302;6.354;2023-01-20T11:26:44;2.70;99.90
27376;DHT22;14844;51.302;6.354;2023-01-20T11:34:48;2.60;99.90
27376;DHT22;14844;51.302;6.354;2023-01-20T11:37:40;2.70;99.90
27376;DHT22;14844;51.302;6.354;2023-01-20T11:40:23;2.70;99.90
27376;DHT22;14844;51.302;6.354;2023-01-20T11:43:08;2.70;99.90
27376;DHT22;14844;51.302;6.354;2023-01-20T11:49:21;2.80;99.90
27376;DHT22;14844;51.302;6.354;2023-01-20T11:55:23;2.80;99.90
27376;DHT22;14844;51.302;6.354;2023-01-20T11:58:02;2.80;99.90
27376;DHT22;14844;51.302;6.354;2023-01-20T12:00:32;2.90;99.90
27376;DHT22;14844;51.302;6.354;2023-01-20T12:12:12;3.10;99.90
27376;DHT22;14844;51.302;6.354;2023-01-20T12:14:54;3.00;99.90
27376;DHT22;14844;51.302;6.354;2023-01-20T12:31:33;3.20;99.90
27376;DHT22;14844;51.302;6.354;2023-01-20T12:34:45;3.10;99.90
27376;DHT22;14844;51.302;6.354;2023-01-20T12:44:34;3.40;99.90
27376;DHT22;14844;51.302;6.354;2023-01-20T12:47:16;3.40;99.90
27376;DHT22;14844;51.302;6.354;2023-01-20T12:49:58;3.40;99.90
27376;DHT22;14844;51.302;6.354;2023-01-20T12:55:29;3.30;99.90
27376;DHT22;14844;51.302;6.354;2023-01-20T13:10:41;3.10;99.90
27376;DHT22;14844;51.302;6.354;2023-01-20T13:13:26;3.10;99.90
27376;DHT22;14844;51.302;6.354;2023-01-20T13:19:55;3.10;99.90
27376;DHT22;14844;51.302;6.354;2023-01-20T13:22:34;3.10;99.90
27376;DHT22;14844;51.302;6.354;2023-01-20T13:25:15;3.10;99.90
27376;DHT22;14844;51.302;6.354;2023-01-20T13:27:49;3.10;99.90
27376;DHT22;14844;51.302;6.354;2023-01-20T13:30:38;3.00;99.90
27376;DHT22;14844;51.302;6.354;2023-01-20T13:35:58;2.90;99.90
27376;DHT22;14844;51.302;6.354;2023-01-20T13:38:30;2.80;99.90
27376;DHT22;14844;51.302;6.354;2023-01-20T13:41:07;2.80;99.90
27376;DHT22;14844;51.302;6.354;2023-01-20T13:43:44;2.80;99.90
27376;DHT22;14844;51.302;6.354;2023-01-20T13:51:51;2.70;99.90
27376;DHT22;14844;51.302;6.354;2023-01-20T13:59:52;2.90;99.90
27376;DHT22;14844;51.302;6.354;2023-01-20T14:02:26;2.90;99.90
27376;DHT22;14844;51.302;6.354;2023-01-20T14:05:41;3.00;99.90
27376;DHT22;14844;51.302;6.354;2023-01-20T14:08:17;3.00;99.90
27376;DHT22;14844;51.302;6.354;2023-01-20T14:10:44;3.00;99.90
27376;DHT22;14844;51.302;6.354;2023-01-20T14:13:20;3.10;99.90
27376;DHT22;14844;51.302;6.354;2023-01-20T14:15:53;3.10;99.90
27376;DHT22;14844;51.302;6.354;2023-01-20T14:18:22;3.10;99.90
27376;DHT22;14844;51.302;6.354;2023-01-20T14:21:18;3.10;99.90
27376;DHT22;14844;51.302;6.354;2023-01-20T14:23:44;3.10;99.90
27376;DHT22;14844;51.302;6.354;2023-01-20T14:26:13;3.10;99.90
27376;DHT22;14844;51.302;6.354;2023-01-20T14:28:55;3.10;99.90
27376;DHT22;14844;51.302;6.354;2023-01-20T14:31:31;3.10;99.90
27376;DHT22;14844;51.302;6.354;2023-01-20T14:34:25;3.10;99.90
27376;DHT22;14844;51.302;6.354;2023-01-20T14:36:51;3.10;99.90
27376;DHT22;14844;51.302;6.354;2023-01-20T14:39:20;3.10;99.90
27376;DHT22;14844;51.302;6.354;2023-01-20T14:41:51;3.00;99.90
27376;DHT22;14844;51.302;6.354;2023-01-20T14:44:23;3.00;99.90
27376;DHT22;14844;51.302;6.354;2023-01-20T14:46:53;3.00;99.90
27376;DHT22;14844;51.302;6.354;2023-01-20T14:49:21;3.00;99.90
27376;DHT22;14844;51.302;6.354;2023-01-20T14:51:48;2.90;99.90
27376;DHT22;14844;51.302;6.354;2023-01-20T14:54:36;2.90;99.90
27376;DHT22;14844;51.302;6.354;2023-01-20T14:57:25;2.90;99.90
27376;DHT22;14844;51.302;6.354;2023-01-20T15:02:45;2.90;99.90
27376;DHT22;14844;51.302;6.354;2023-01-20T15:05:27;2.90;99.90
27376;DHT22;14844;51.302;6.354;2023-01-20T15:10:38;2.90;99.90
27376;DHT22;14844;51.302;6.354;2023-01-20T15:13:25;2.80;99.90
27376;DHT22;14844;51.302;6.354;2023-01-20T15:16:18;2.80;99.90
27376;DHT22;14844;51.302;6.354;2023-01-20T15:19:17;2.80;99.90
27376;DHT22;14844;51.302;6.354;2023-01-20T15:22:08;2.80;99.90
27376;DHT22;14844;51.302;6.354;2023-01-20T15:24:40;2.70;99.90
27376;DHT22;14844;51.302;6.354;2023-01-20T15:27:24;2.70;99.90
27376;DHT22;14844;51.302;6.354;2023-01-20T15:30:18;2.60;99.90
27376;DHT22;14844;51.302;6.354;2023-01-20T15:32:53;2.60;99.90
27376;DHT22;14844;51.302;6.354;2023-01-20T15:35:24;2.50;99.90
27376;DHT22;14844;51.302;6.354;2023-01-20T15:37:58;2.50;99.90
27376;DHT22;14844;51.302;6.354;2023-01-20T15:40:24;2.50;99.90
27376;DHT22;14844;51.302;6.354;2023-01-20T15:45:48;2.50;99.90
27376;DHT22;14844;51.302;6.354;2023-01-20T15:48:25;2.50;99.90
27376;DHT22;14844;51.302;6.354;2023-01-20T15:54:25;2.40;99.90
27376;DHT22;14844;51.302;6.354;2023-01-20T15:56:52;2.40;99.90
27376;DHT22;14844;51.302;6.354;2023-01-20T15:59:33;2.30;99.90
27376;DHT22;14844;51.302;6.354;2023-01-20T16:02:26;2.30;99.90
27376;DHT22;14844;51.302;6.354;2023-01-20T16:05:07;2.30;99.90
27376;DHT22;14844;51.302;6.354;2023-01-20T16:07:39;2.30;99.90
27376;DHT22;14844;51.302;6.354;2023-01-20T16:10:19;2.30;99.90
27376;DHT22;14844;51.302;6.354;2023-01-20T16:12:51;2.30;99.90
27376;DHT22;14844;51.302;6.354;2023-01-20T16:15:34;2.30;99.90
27376;DHT22;14844;51.302;6.354;2023-01-20T16:18:04;2.30;99.90
27376;DHT22;14844;51.302;6.354;2023-01-20T16:20:34;2.20;99.90
27376;DHT22;14844;51.302;6.354;2023-01-20T16:23:05;2.20;99.90
27376;DHT22;14844;51.302;6.354;2023-01-20T16:26:01;2.30;99.90
27376;DHT22;14844;51.302;6.354;2023-01-20T16:28:36;2.20;99.90
27376;DHT22;14844;51.302;6.354;2023-01-20T16:34:02;2.20;99.90
27376;DHT22;14844;51.302;6.354;2023-01-20T16:36:47;2.20;99.90
27376;DHT22;14844;51.302;6.354;2023-01-20T16:39:21;2.20;99.90
27376;DHT22;14844;51.302;6.354;2023-01-20T16:42:14;2.30;99.90
27376;DHT22;14844;51.302;6.354;2023-01-20T16:44:44;2.30;99.90
27376;DHT22;14844;51.302;6.354;2023-01-20T16:47:13;2.30;99.90
27376;DHT22;14844;51.302;6.354;2023-01-20T16:49:52;2.30;99.90
27376;DHT22;14844;51.302;6.354;2023-01-20T16:52:26;2.30;99.90
27376;DHT22;14844;51.302;6.354;2023-01-20T16:55:23;2.30;99.90
27376;DHT22;14844;51.302;6.354;2023-01-20T16:58:16;2.30;99.90
27376;DHT22;14844;51.302;6.354;2023-01-20T17:01:06;2.30;99.90
27376;DHT22;14844;51.302;6.354;2023-01-20T17:04:10;2.30;99.90
27376;DHT22;14844;51.302;6.354;2023-01-20T17:06:56;2.30;99.90
27376;DHT22;14844;51.302;6.354;2023-01-20T17:10:06;2.40;99.90
27376;DHT22;14844;51.302;6.354;2023-01-20T17:13:05;2.40;99.90
27376;DHT22;14844;51.302;6.354;2023-01-20T17:15:42;2.40;99.90
27376;DHT22;14844;51.302;6.354;2023-01-20T17:18:52;2.40;99.90
27376;DHT22;14844;51.302;6.354;2023-01-20T17:21:25;2.40;99.90
27376;DHT22;14844;51.302;6.354;2023-01-20T17:23:59;2.30;99.90
27376;DHT22;14844;51.302;6.354;2023-01-20T17:26:34;2.30;99.90
27376;DHT22;14844;51.302;6.354;2023-01-20T17:29:06;2.30;99.90
27376;DHT22;14844;51.302;6.354;2023-01-20T17:31:48;2.30;99.90
27376;DHT22;14844;51.302;6.354;2023-01-20T17:37:34;2.20;99.90
27376;DHT22;14844;51.302;6.354;2023-01-20T17:43:32;2.10;99.90
27376;DHT22;14844;51.302;6.354;2023-01-20T17:46:36;1.90;99.90
27376;DHT22;14844;51.302;6.354;2023-01-20T17:49:18;1.70;99.90
27376;DHT22;14844;51.302;6.354;2023-01-20T17:51:51;1.60;99.90
27376;DHT22;14844;51.302;6.354;2023-01-20T17:54:17;1.40;99.90
27376;DHT22;14844;51.302;6.354;2023-01-20T17:56:49;1.30;99.90
27376;DHT22;14844;51.302;6.354;2023-01-20T17:59:15;1.20;99.90
27376;DHT22;14844;51.302;6.354;2023-01-20T18:01:41;1.10;99.90
27376;DHT22;14844;51.302;6.354;2023-01-20T18:04:06;1.00;99.90
27376;DHT22;14844;51.302;6.354;2023-01-20T18:06:35;0.90;99.90
27376;DHT22;14844;51.302;6.354;2023-01-20T18:09:03;1.00;99.90
27376;DHT22;14844;51.302;6.354;2023-01-20T18:11:31;0.90;99.90
27376;DHT22;14844;51.302;6.354;2023-01-20T18:13:58;0.90;99.90
27376;DHT22;14844;51.302;6.354;2023-01-20T18:16:33;0.90;99.90
27376;DHT22;14844;51.302;6.354;2023-01-20T18:18:59;0.80;99.90
27376;DHT22;14844;51.302;6.354;2023-01-20T18:21:36;0.80;99.90
27376;DHT22;14844;51.302;6.354;2023-01-20T18:24:04;0.70;99.90
27376;DHT22;14844;51.302;6.354;2023-01-20T18:26:32;0.70;99.90
27376;DHT22;14844;51.302;6.354;2023-01-20T18:29:02;0.60;99.90
27376;DHT22;14844;51.302;6.354;2023-01-20T18:31:29;0.60;99.90
27376;DHT22;14844;51.302;6.354;2023-01-20T18:34:05;0.60;99.90
27376;DHT22;14844;51.302;6.354;2023-01-20T18:36:33;0.60;99.90
27376;DHT22;14844;51.302;6.354;2023-01-20T18:39:02;0.60;99.90
27376;DHT22;14844;51.302;6.354;2023-01-20T18:41:30;0.50;99.90
27376;DHT22;14844;51.302;6.354;2023-01-20T18:43:56;0.50;99.90
27376;DHT22;14844;51.302;6.354;2023-01-20T18:46:22;0.40;99.90
27376;DHT22;14844;51.302;6.354;2023-01-20T18:48:48;0.40;99.90
27376;DHT22;14844;51.302;6.354;2023-01-20T18:51:17;0.30;99.90
27376;DHT22;14844;51.302;6.354;2023-01-20T18:53:46;0.30;99.90
27376;DHT22;14844;51.302;6.354;2023-01-20T18:56:21;0.20;99.90
27376;DHT22;14844;51.302;6.354;2023-01-20T18:58:47;0.20;99.90
27376;DHT22;14844;51.302;6.354;2023-01-20T19:01:16;0.10;99.90
27376;DHT22;14844;51.302;6.354;2023-01-20T19:03:45;0.00;99.90
27376;DHT22;14844;51.302;6.354;2023-01-20T19:06:16;0.00;99.90
27376;DHT22;14844;51.302;6.354;2023-01-20T19:08:43;-0.10;99.90
27376;DHT22;14844;51.302;6.354;2023-01-20T19:11:15;-0.10;99.90
27376;DHT22;14844;51.302;6.354;2023-01-20T19:17:07;-0.10;99.90